createdAt,value
2019-06-26T00:01:38.244Z,12.97
2019-06-26T00:04:04.803Z,12.40
2019-06-26T00:06:31.148Z,12.93
2019-06-26T00:08:57.580Z,13.10
2019-06-26T00:11:24.320Z,12.20
2019-06-26T00:13:50.398Z,12.53
2019-06-26T00:16:16.876Z,12.50
2019-06-26T00:18:43.618Z,12.37
2019-06-26T00:21:09.684Z,12.83
2019-06-26T00:23:35.757Z,12.73
2019-06-26T00:26:01.833Z,12.60
2019-06-26T00:28:27.880Z,12.10
2019-06-26T00:30:54.312Z,13.10
2019-06-26T00:33:20.680Z,12.27
2019-06-26T00:35:47.036Z,12.53
2019-06-26T00:38:13.088Z,13.10
2019-06-26T00:40:39.159Z,12.67
2019-06-26T00:43:05.589Z,12.53
2019-06-26T00:45:32.719Z,12.27
2019-06-26T00:47:58.765Z,11.73
2019-06-26T00:50:25.179Z,11.90
2019-06-26T00:52:51.520Z,12.30
2019-06-26T00:55:17.947Z,12.80
2019-06-26T00:57:45.364Z,12.03
2019-06-26T01:00:13.840Z,11.80
2019-06-26T01:02:40.262Z,12.27
2019-06-26T01:05:11.983Z,12.87
2019-06-26T01:07:39.393Z,12.20
2019-06-26T01:10:08.120Z,12.33
2019-06-26T01:12:34.551Z,12.63
2019-06-26T01:15:00.883Z,12.53
2019-06-26T01:17:26.933Z,12.57
2019-06-26T01:19:53.499Z,11.73
2019-06-26T01:22:19.992Z,13.10
2019-06-26T01:24:46.080Z,13.00
2019-06-26T01:27:12.432Z,11.77
2019-06-26T01:29:38.512Z,12.80
2019-06-26T01:32:04.688Z,12.67
2019-06-26T01:34:30.749Z,12.20
2019-06-26T01:36:57.188Z,11.80
2019-06-26T01:39:23.268Z,11.70
2019-06-26T01:41:49.552Z,12.07
2019-06-26T01:44:15.874Z,12.07
2019-06-26T01:46:43.132Z,12.67
2019-06-26T01:49:09.504Z,12.40
2019-06-26T01:51:35.932Z,11.43
2019-06-26T01:54:02.078Z,12.80
2019-06-26T01:56:28.488Z,12.37
2019-06-26T01:58:55.227Z,13.03
2019-06-26T02:01:21.677Z,12.83
2019-06-26T02:03:48.680Z,12.80
2019-06-26T02:06:15.346Z,13.87
2019-06-26T02:08:41.680Z,13.30
2019-06-26T02:11:07.749Z,13.67
2019-06-26T02:13:34.137Z,14.23
2019-06-26T02:16:00.462Z,12.20
2019-06-26T02:18:40.312Z,13.10
2019-06-26T02:21:06.474Z,13.27
2019-06-26T02:23:32.546Z,13.03
2019-06-26T02:25:59.219Z,13.50
2019-06-26T02:28:25.270Z,13.70
2019-06-26T02:30:52.060Z,12.80
2019-06-26T02:33:18.476Z,14.00
2019-06-26T02:35:44.534Z,13.27
2019-06-26T02:38:10.604Z,13.27
2019-06-26T02:40:36.970Z,12.30
2019-06-26T02:43:06.738Z,12.17
2019-06-26T02:45:32.084Z,12.97
2019-06-26T02:47:58.186Z,13.13
2019-06-26T02:50:24.240Z,12.70
2019-06-26T02:52:50.288Z,12.20
2019-06-26T02:55:16.711Z,11.57
2019-06-26T02:57:43.128Z,12.97
2019-06-26T03:00:09.651Z,12.50
2019-06-26T03:02:36.079Z,13.00
2019-06-26T03:05:04.568Z,11.57
2019-06-26T03:07:31.017Z,14.53
2019-06-26T03:09:57.068Z,13.13
2019-06-26T03:12:23.518Z,12.70
2019-06-26T03:14:49.561Z,12.47
2019-06-26T03:17:16.325Z,14.20
2019-06-26T03:19:42.652Z,14.07
2019-06-26T03:22:08.787Z,12.73
2019-06-26T03:24:35.112Z,12.10
2019-06-26T03:27:01.161Z,13.27
2019-06-26T03:29:27.224Z,12.83
2019-06-26T03:31:53.590Z,12.00
2019-06-26T03:34:19.941Z,12.77
2019-06-26T03:36:46.767Z,11.63
2019-06-26T03:39:12.853Z,12.90
2019-06-26T03:41:38.905Z,11.83
2019-06-26T03:44:05.480Z,12.87
2019-06-26T03:46:32.115Z,12.43
2019-06-26T03:48:58.846Z,12.97
2019-06-26T03:51:25.388Z,13.50
2019-06-26T03:53:51.493Z,11.57
2019-06-26T03:56:17.805Z,13.60
2019-06-26T03:58:43.867Z,12.70
2019-06-26T04:01:09.935Z,12.40
2019-06-26T04:03:35.985Z,13.30
2019-06-26T04:06:02.309Z,12.10
2019-06-26T04:08:28.397Z,13.03
2019-06-26T04:10:54.442Z,11.80
2019-06-26T04:13:20.805Z,13.00
2019-06-26T04:15:46.857Z,12.63
2019-06-26T04:18:13.287Z,12.60
2019-06-26T04:20:39.500Z,13.43
2019-06-26T04:23:05.589Z,12.50
2019-06-26T04:25:31.656Z,12.23
2019-06-26T04:27:58.052Z,12.53
2019-06-26T04:30:25.402Z,14.30
2019-06-26T04:32:52.501Z,13.70
2019-06-26T04:35:18.597Z,14.23
2019-06-26T04:37:45.029Z,14.80
2019-06-26T04:40:12.747Z,14.30
2019-06-26T04:42:39.097Z,13.97
2019-06-26T04:45:07.341Z,14.60
2019-06-26T04:47:35.035Z,13.07
2019-06-26T04:50:01.122Z,14.93
2019-06-26T04:52:27.814Z,14.00
2019-06-26T04:54:54.985Z,13.30
2019-06-26T04:57:21.032Z,15.63
2019-06-26T04:59:47.400Z,14.40
2019-06-26T05:02:14.193Z,15.40
2019-06-26T05:04:40.390Z,15.40
2019-06-26T05:07:06.822Z,15.20
2019-06-26T05:09:33.541Z,14.80
2019-06-26T05:11:59.612Z,14.70
2019-06-26T05:14:26.095Z,13.73
2019-06-26T05:16:52.628Z,14.73
2019-06-26T05:19:18.698Z,12.93
2019-06-26T05:21:45.113Z,12.13
2019-06-26T05:24:11.187Z,12.10
2019-06-26T05:26:38.464Z,12.20
2019-06-26T05:29:04.516Z,11.27
2019-06-26T05:31:30.694Z,11.83
2019-06-26T05:33:58.068Z,9.77
2019-06-26T05:36:24.289Z,11.73
2019-06-26T05:38:50.344Z,11.93
2019-06-26T05:41:16.396Z,10.73
2019-06-26T05:43:42.777Z,11.17
2019-06-26T05:46:08.825Z,11.00
2019-06-26T05:48:34.896Z,10.77
2019-06-26T05:51:00.953Z,10.73
2019-06-26T05:53:27.025Z,11.10
2019-06-26T05:55:53.704Z,9.90
2019-06-26T05:58:19.756Z,11.10
2019-06-26T06:00:47.432Z,10.60
2019-06-26T06:03:13.725Z,10.50
2019-06-26T06:05:40.164Z,10.63
2019-06-26T06:08:06.627Z,10.60
2019-06-26T06:10:33.324Z,10.10
2019-06-26T06:12:59.388Z,10.40
2019-06-26T06:15:25.807Z,10.17
2019-06-26T06:17:52.240Z,9.67
2019-06-26T06:20:38.184Z,9.80
2019-06-26T06:23:05.759Z,9.13
2019-06-26T06:25:32.196Z,10.07
2019-06-26T06:27:58.601Z,9.90
2019-06-26T06:30:25.489Z,9.90
2019-06-26T06:32:52.312Z,9.50
2019-06-26T06:35:18.381Z,9.60
2019-06-26T06:37:45.246Z,9.67
2019-06-26T06:40:12.640Z,8.83
2019-06-26T06:42:38.709Z,9.17
2019-06-26T06:45:05.596Z,9.40
2019-06-26T06:47:32.032Z,8.97
2019-06-26T06:49:59.289Z,9.60
2019-06-26T06:52:25.729Z,8.80
2019-06-26T06:55:02.553Z,9.43
2019-06-26T06:57:30.685Z,9.70
2019-06-26T06:59:56.733Z,9.30
2019-06-26T07:02:23.360Z,9.40
2019-06-26T07:07:47.829Z,9.53
2019-06-26T07:10:15.113Z,8.93
2019-06-26T07:12:41.532Z,8.10
2019-06-26T07:15:09.789Z,8.90
2019-06-26T07:17:36.233Z,8.33
2019-06-26T07:20:04.672Z,8.60
2019-06-26T07:22:30.764Z,8.50
2019-06-26T07:24:57.180Z,9.00
2019-06-26T07:27:23.273Z,8.77
2019-06-26T07:29:49.334Z,8.80
2019-06-26T07:32:15.776Z,8.30
2019-06-26T07:34:42.185Z,8.70
2019-06-26T07:37:08.912Z,8.03
2019-06-26T07:39:35.293Z,8.73
2019-06-26T07:42:02.088Z,7.93
2019-06-26T07:44:28.206Z,8.40
2019-06-26T07:46:54.356Z,8.90
2019-06-26T07:49:20.801Z,8.60
2019-06-26T07:51:46.860Z,8.47
2019-06-26T07:54:13.280Z,8.57
2019-06-26T07:56:39.325Z,8.20
2019-06-26T07:59:05.686Z,8.10
2019-06-26T08:01:32.513Z,8.77
2019-06-26T08:03:59.566Z,8.07
2019-06-26T08:06:25.985Z,8.57
2019-06-26T08:08:52.400Z,8.40
2019-06-26T08:11:18.467Z,8.60
2019-06-26T08:13:44.520Z,8.53
2019-06-26T08:16:10.825Z,9.27
2019-06-26T08:18:36.874Z,9.30
2019-06-26T08:21:12.192Z,8.73
2019-06-26T08:23:31.348Z,9.43
2019-06-26T08:25:57.660Z,8.40
2019-06-26T08:28:24.618Z,8.50
2019-06-26T08:30:51.173Z,8.00
2019-06-26T08:33:17.601Z,8.90
2019-06-26T08:35:43.693Z,8.47
2019-06-26T08:38:14.360Z,8.20
2019-06-26T08:40:37.799Z,8.50
2019-06-26T08:43:04.120Z,8.60
2019-06-26T08:45:30.551Z,8.13
2019-06-26T08:47:56.888Z,8.30
2019-06-26T08:50:23.311Z,7.97
2019-06-26T08:52:49.657Z,8.43
2019-06-26T08:55:17.475Z,8.30
2019-06-26T08:57:44.246Z,8.30
2019-06-26T09:00:13.397Z,7.97
2019-06-26T09:02:39.460Z,8.70
2019-06-26T09:05:07.277Z,8.40
2019-06-26T09:07:33.968Z,8.37
2019-06-26T09:10:00.033Z,7.87
2019-06-26T09:12:26.076Z,8.10
2019-06-26T09:14:52.145Z,7.57
2019-06-26T09:17:18.481Z,8.10
2019-06-26T09:19:44.924Z,7.27
2019-06-26T09:22:11.697Z,7.77
2019-06-26T09:24:38.190Z,7.83
2019-06-26T09:27:04.603Z,8.00
2019-06-26T09:29:31.954Z,8.00
2019-06-26T09:31:58.021Z,8.07
2019-06-26T09:34:24.065Z,8.17
2019-06-26T09:36:50.501Z,7.30
2019-06-26T09:39:16.549Z,8.30
2019-06-26T09:41:42.622Z,8.20
2019-06-26T09:44:08.676Z,7.37
2019-06-26T09:46:35.045Z,8.20
2019-06-26T09:49:02.542Z,8.83
2019-06-26T09:51:28.833Z,8.30
2019-06-26T09:53:54.883Z,8.37
2019-06-26T09:56:21.056Z,7.90
2019-06-26T09:58:47.421Z,8.10
2019-06-26T10:01:13.845Z,7.87
2019-06-26T10:03:40.440Z,7.90
2019-06-26T10:06:06.813Z,9.03
2019-06-26T10:08:33.654Z,8.70
2019-06-26T10:11:00.189Z,8.37
2019-06-26T10:13:26.233Z,8.33
2019-06-26T10:15:52.540Z,7.70
2019-06-26T10:18:18.689Z,7.93
2019-06-26T10:20:44.740Z,8.10
2019-06-26T10:23:11.466Z,8.03
2019-06-26T10:25:37.593Z,8.47
2019-06-26T10:28:03.675Z,8.10
2019-06-26T10:30:30.333Z,8.30
2019-06-26T10:32:56.783Z,7.80
2019-06-26T10:35:23.081Z,8.47
2019-06-26T10:37:49.148Z,8.00
2019-06-26T10:40:16.936Z,7.73
2019-06-26T10:42:44.472Z,8.00
2019-06-26T10:45:13.217Z,8.07
2019-06-26T10:47:40.267Z,7.70
2019-06-26T10:50:08.317Z,7.87
2019-06-26T10:52:34.683Z,8.40
2019-06-26T10:55:02.420Z,8.10
2019-06-26T10:57:28.645Z,7.50
2019-06-26T10:59:56.010Z,8.20
2019-06-26T11:02:22.737Z,7.57
2019-06-26T11:04:49.357Z,8.17
2019-06-26T11:07:15.476Z,7.67
2019-06-26T11:09:41.833Z,7.27
2019-06-26T11:12:07.897Z,7.53
2019-06-26T11:14:33.944Z,7.90
2019-06-26T11:17:00.017Z,8.10
2019-06-26T11:19:42.363Z,8.20
2019-06-26T11:21:54.029Z,7.87
2019-06-26T11:24:20.327Z,7.63
2019-06-26T11:26:46.392Z,7.50
2019-06-26T11:29:12.456Z,7.40
2019-06-26T11:31:38.589Z,7.73
2019-06-26T11:34:04.660Z,7.03
2019-06-26T11:36:31.633Z,7.50
2019-06-26T11:38:57.696Z,7.10
2019-06-26T11:41:23.835Z,7.73
2019-06-26T11:43:50.557Z,7.30
2019-06-26T11:46:16.973Z,7.50
2019-06-26T11:48:43.050Z,7.83
2019-06-26T11:51:09.752Z,7.47
2019-06-26T11:53:36.385Z,7.17
2019-06-26T11:56:03.833Z,8.13
2019-06-26T11:58:30.253Z,8.07
2019-06-26T12:00:57.022Z,7.53
2019-06-26T12:03:23.157Z,8.07
2019-06-26T12:05:49.604Z,7.70
2019-06-26T12:08:18.398Z,7.60
2019-06-26T12:10:44.329Z,7.10
2019-06-26T12:13:10.716Z,7.27
2019-06-26T12:15:36.770Z,7.00
2019-06-26T12:18:02.955Z,6.70
2019-06-26T12:20:29.152Z,7.30
2019-06-26T12:22:55.221Z,7.70
2019-06-26T12:25:21.269Z,6.87
2019-06-26T12:27:47.332Z,7.40
2019-06-26T12:30:13.800Z,7.60
2019-06-26T12:32:42.559Z,7.17
2019-06-26T12:35:09.009Z,7.30
2019-06-26T12:37:37.919Z,7.30
2019-06-26T12:40:05.790Z,7.60
2019-06-26T12:42:31.867Z,7.23
2019-06-26T12:44:58.017Z,7.70
2019-06-26T12:47:24.295Z,7.00
2019-06-26T12:49:50.332Z,7.93
2019-06-26T12:52:17.140Z,8.03
2019-06-26T12:54:43.551Z,6.93
2019-06-26T12:57:09.964Z,7.40
2019-06-26T12:59:36.404Z,6.57
2019-06-26T13:02:02.824Z,7.70
2019-06-26T13:04:29.237Z,7.53
2019-06-26T13:06:58.861Z,7.70
2019-06-26T13:09:23.552Z,6.97
2019-06-26T13:11:49.617Z,6.90
2019-06-26T13:14:15.665Z,6.90
2019-06-26T13:16:42.114Z,6.63
2019-06-26T13:19:08.546Z,7.03
2019-06-26T13:21:35.324Z,7.27
2019-06-26T13:24:01.390Z,7.27
2019-06-26T13:26:27.872Z,7.20
2019-06-26T13:28:54.936Z,7.00
2019-06-26T13:31:20.973Z,6.30
2019-06-26T13:33:47.275Z,7.60
2019-06-26T13:36:13.692Z,6.73
2019-06-26T13:38:40.252Z,6.77
2019-06-26T13:41:06.668Z,6.90
2019-06-26T13:43:32.717Z,6.70
2019-06-26T13:45:59.063Z,7.17
2019-06-26T13:48:26.388Z,7.23
2019-06-26T13:51:07.827Z,6.97
2019-06-26T13:53:20.728Z,7.17
2019-06-26T13:55:46.773Z,6.70
2019-06-26T13:58:12.823Z,6.40
2019-06-26T14:00:39.185Z,7.53
2019-06-26T14:03:05.313Z,6.43
2019-06-26T14:05:31.366Z,6.50
2019-06-26T14:07:57.741Z,6.87
2019-06-26T14:10:23.801Z,6.70
2019-06-26T14:12:49.953Z,6.77
2019-06-26T14:15:17.530Z,6.93
2019-06-26T14:17:44.960Z,6.53
2019-06-26T14:20:13.130Z,6.97
2019-06-26T14:22:39.172Z,6.93
2019-06-26T14:25:07.136Z,6.20
2019-06-26T14:27:33.180Z,7.17
2019-06-26T14:29:59.260Z,7.20
2019-06-26T14:32:25.676Z,6.53
2019-06-26T14:34:52.388Z,6.60
2019-06-26T14:37:18.454Z,7.10
2019-06-26T14:39:45.147Z,6.87
2019-06-26T14:42:11.212Z,7.20
2019-06-26T14:44:37.257Z,6.53
2019-06-26T14:47:03.321Z,7.07
2019-06-26T14:49:29.740Z,7.53
2019-06-26T14:51:56.084Z,6.90
2019-06-26T14:54:22.144Z,5.80
2019-06-26T14:56:48.655Z,6.27
2019-06-26T14:59:14.720Z,6.23
2019-06-26T15:01:41.092Z,6.50
2019-06-26T15:04:07.532Z,6.93
2019-06-26T15:06:33.860Z,7.70
2019-06-26T15:09:00.276Z,6.50
2019-06-26T15:11:26.620Z,6.90
2019-06-26T15:13:52.664Z,6.20
2019-06-26T15:16:19.505Z,6.83
2019-06-26T15:18:45.917Z,6.83
2019-06-26T15:21:12.248Z,7.30
2019-06-26T15:23:38.680Z,6.53
2019-06-26T15:26:05.332Z,7.30
2019-06-26T15:28:31.376Z,7.00
2019-06-26T15:30:57.442Z,6.60
2019-06-26T15:33:23.791Z,6.10
2019-06-26T15:35:49.864Z,6.60
2019-06-26T15:38:16.188Z,6.60
2019-06-26T15:40:42.884Z,7.23
2019-06-26T15:43:09.301Z,6.90
2019-06-26T15:45:35.424Z,6.00
2019-06-26T15:48:01.534Z,6.77
2019-06-26T15:50:27.896Z,6.60
2019-06-26T15:52:54.232Z,6.57
2019-06-26T15:55:20.276Z,5.73
2019-06-26T15:57:46.496Z,7.20
2019-06-26T16:00:14.648Z,6.10
2019-06-26T16:02:40.983Z,7.70
2019-06-26T16:05:07.417Z,6.50
2019-06-26T16:07:34.193Z,7.37
2019-06-26T16:10:00.314Z,7.33
2019-06-26T16:12:27.656Z,7.03
2019-06-26T16:14:53.815Z,6.83
2019-06-26T16:17:27.900Z,6.60
2019-06-26T16:19:54.212Z,7.13
2019-06-26T16:22:31.526Z,7.13
2019-06-26T16:24:48.852Z,6.13
2019-06-26T16:27:14.898Z,6.50
2019-06-26T16:29:40.945Z,7.10
2019-06-26T16:32:07.399Z,7.20
2019-06-26T16:34:33.684Z,6.67
2019-06-26T16:36:59.744Z,7.00
2019-06-26T16:39:26.073Z,6.80
2019-06-26T16:41:52.136Z,6.97
2019-06-26T16:44:19.612Z,6.80
2019-06-26T16:46:46.095Z,6.47
2019-06-26T16:49:12.184Z,7.00
2019-06-26T16:51:38.336Z,5.80
2019-06-26T16:54:04.405Z,7.10
2019-06-26T16:56:30.454Z,6.60
2019-06-26T16:58:56.524Z,6.63
2019-06-26T17:01:23.347Z,6.50
2019-06-26T17:03:50.138Z,7.13
2019-06-26T17:06:16.231Z,6.97
2019-06-26T17:08:42.536Z,7.20
2019-06-26T17:11:08.601Z,7.07
2019-06-26T17:13:34.645Z,7.13
2019-06-26T17:16:01.023Z,6.83
2019-06-26T17:18:27.465Z,7.00
2019-06-26T17:20:53.601Z,6.67
2019-06-26T17:23:19.644Z,7.00
2019-06-26T17:25:46.060Z,6.33
2019-06-26T17:28:12.135Z,6.83
2019-06-26T17:30:38.577Z,6.40
2019-06-26T17:33:04.916Z,6.80
2019-06-26T17:35:31.261Z,6.63
2019-06-26T17:37:57.684Z,6.30
2019-06-26T17:40:24.096Z,6.47
2019-06-26T17:42:50.150Z,6.10
2019-06-26T17:45:16.425Z,7.10
2019-06-26T17:47:42.505Z,7.23
2019-06-26T17:50:10.171Z,6.60
2019-06-26T17:52:38.435Z,6.43
2019-06-26T17:55:08.440Z,6.53
2019-06-26T17:57:34.773Z,6.27
2019-06-26T18:00:01.110Z,6.40
2019-06-26T18:02:27.636Z,5.87
2019-06-26T18:04:53.697Z,6.90
2019-06-26T18:07:20.091Z,6.80
2019-06-26T18:09:46.423Z,6.47
2019-06-26T18:12:12.489Z,6.83
2019-06-26T18:14:38.565Z,5.90
2019-06-26T18:17:17.960Z,6.80
2019-06-26T18:19:32.870Z,5.87
2019-06-26T18:21:58.915Z,6.30
2019-06-26T18:24:25.081Z,6.47
2019-06-26T18:26:51.500Z,5.90
2019-06-26T18:29:17.893Z,5.80
2019-06-26T18:31:44.311Z,6.70
2019-06-26T18:34:10.640Z,7.07
2019-06-26T18:36:36.972Z,6.10
2019-06-26T18:39:06.826Z,5.77
2019-06-26T18:41:33.220Z,6.50
2019-06-26T18:43:59.267Z,6.13
2019-06-26T18:46:25.324Z,7.07
2019-06-26T18:48:51.996Z,6.03
2019-06-26T18:51:18.068Z,6.10
2019-06-26T18:53:53.601Z,6.30
2019-06-26T18:56:12.312Z,6.70
2019-06-26T18:58:38.546Z,6.40
2019-06-26T19:10:41.354Z,8.37
2019-06-26T19:16:38.913Z,9.60
2019-06-26T19:19:05.426Z,9.30
2019-06-26T19:21:38.418Z,11.10
2019-06-26T19:24:24.360Z,15.20
2019-06-26T19:30:08.497Z,12.70
2019-06-26T19:32:46.337Z,35.60
2019-06-26T19:35:19.856Z,12.10
2019-06-26T19:44:36.675Z,20.80
2019-06-26T19:47:32.576Z,15.90
2019-06-26T19:53:16.436Z,18.30
2019-06-26T19:55:56.656Z,17.60
2019-06-26T19:58:43.127Z,23.20
2019-06-26T20:01:30.782Z,18.40
2019-06-26T20:04:13.670Z,24.23
2019-06-26T20:06:57.464Z,17.10
2019-06-26T20:09:46.128Z,18.00
2019-06-26T20:12:34.391Z,19.93
2019-06-26T20:18:34.947Z,23.50
2019-06-26T20:24:17.432Z,13.63
2019-06-26T20:29:51.848Z,17.43
2019-06-26T20:32:37.369Z,17.87
2019-06-26T20:41:15.015Z,17.70
2019-06-26T20:44:04.682Z,15.10
2019-06-26T20:46:39.503Z,23.30
2019-06-26T20:49:52.525Z,16.20
2019-06-26T20:52:25.303Z,16.13
2019-06-26T20:58:12.389Z,18.07
2019-06-26T21:00:55.414Z,15.87
2019-06-26T21:03:45.696Z,14.50
2019-06-26T21:06:20.415Z,16.30
2019-06-26T21:08:48.319Z,21.80
2019-06-26T21:11:15.850Z,28.47
2019-06-26T21:13:42.711Z,17.23
2019-06-26T21:16:08.786Z,16.17
2019-06-26T21:18:35.412Z,15.73
2019-06-26T21:21:02.114Z,15.60
2019-06-26T21:23:28.436Z,16.20
2019-06-26T21:25:54.710Z,15.87
2019-06-26T21:28:20.753Z,15.47
2019-06-26T21:30:46.800Z,14.77
2019-06-26T21:33:13.556Z,14.90
2019-06-26T21:35:39.680Z,14.60
2019-06-26T21:38:06.178Z,15.33
2019-06-26T21:40:32.871Z,15.63
2019-06-26T21:42:59.704Z,16.37
2019-06-26T21:45:26.019Z,15.87
2019-06-26T21:47:52.453Z,15.00
2019-06-26T21:50:19.454Z,15.70
2019-06-26T21:52:45.951Z,15.63
2019-06-26T21:55:12.120Z,16.20
2019-06-26T21:57:39.000Z,17.10
2019-06-26T22:00:07.852Z,16.57
2019-06-26T22:02:35.756Z,15.50
2019-06-26T22:05:06.201Z,15.80
2019-06-26T22:07:34.176Z,16.97
2019-06-26T22:10:00.235Z,17.30
2019-06-26T22:12:26.646Z,16.07
2019-06-26T22:14:53.040Z,16.67
2019-06-26T22:17:19.475Z,17.03
2019-06-26T22:19:45.896Z,17.43
2019-06-26T22:22:12.644Z,16.30
2019-06-26T22:24:39.718Z,17.80
2019-06-26T22:27:05.842Z,17.40
2019-06-26T22:29:31.885Z,17.30
2019-06-26T22:31:58.781Z,17.73
2019-06-26T22:34:25.626Z,16.90
2019-06-26T22:36:52.414Z,18.83
2019-06-26T22:39:19.406Z,16.90
2019-06-26T22:41:45.465Z,16.90
2019-06-26T22:44:11.525Z,17.20
2019-06-26T22:46:37.897Z,16.60
2019-06-26T22:49:04.057Z,16.90
2019-06-26T22:51:30.129Z,16.60
2019-06-26T22:53:56.173Z,15.50
2019-06-26T22:56:25.054Z,15.73
2019-06-26T22:58:51.107Z,14.73
2019-06-26T23:01:17.405Z,15.50
2019-06-26T23:03:44.168Z,15.20
2019-06-26T23:06:10.293Z,14.77
2019-06-26T23:08:36.366Z,14.90
2019-06-26T23:11:02.798Z,14.33
2019-06-26T23:13:29.261Z,15.77
2019-06-26T23:15:55.595Z,16.40
2019-06-26T23:18:21.928Z,14.10
2019-06-26T23:20:48.664Z,15.80
2019-06-26T23:23:15.105Z,14.30
2019-06-26T23:25:41.157Z,15.00
2019-06-26T23:28:07.525Z,14.80
2019-06-26T23:30:33.584Z,15.20
2019-06-26T23:32:59.904Z,17.43
2019-06-26T23:35:26.361Z,14.00
2019-06-26T23:37:52.417Z,13.70
2019-06-26T23:40:19.370Z,14.70
2019-06-26T23:42:46.145Z,14.70
2019-06-26T23:45:14.120Z,14.77
2019-06-26T23:47:40.563Z,17.83
2019-06-26T23:50:08.107Z,14.60
2019-06-26T23:52:34.448Z,13.70
2019-06-26T23:55:01.225Z,15.10
2019-06-26T23:57:28.013Z,14.67
2019-06-26T23:59:54.453Z,15.90
